createdAt,value
2022-09-09T00:01:02.258Z,6.28
2022-09-09T00:06:09.664Z,6.18
2022-09-09T00:11:15.341Z,7.22
2022-09-09T00:16:25.303Z,6.30
2022-09-09T00:21:34.539Z,6.63
2022-09-09T00:26:41.330Z,6.57
2022-09-09T00:31:47.763Z,6.10
2022-09-09T00:36:53.458Z,6.50
2022-09-09T00:42:10.454Z,6.75
2022-09-09T00:47:40.128Z,6.53
2022-09-09T00:52:50.720Z,6.50
2022-09-09T00:57:54.926Z,6.50
2022-09-09T01:03:25.410Z,6.10
2022-09-09T01:08:53.391Z,6.50
2022-09-09T01:14:04.247Z,6.78
2022-09-09T01:19:20.955Z,6.43
2022-09-09T01:24:28.236Z,6.63
2022-09-09T01:29:51.278Z,7.00
2022-09-09T01:34:56.366Z,7.85
2022-09-09T01:40:00.988Z,8.07
2022-09-09T01:45:07.403Z,7.30
2022-09-09T01:50:13.201Z,6.40
2022-09-09T01:55:17.535Z,7.20
2022-09-09T02:00:23.247Z,7.53
2022-09-09T02:05:39.014Z,6.78
2022-09-09T02:10:55.638Z,7.32
2022-09-09T02:16:16.044Z,8.18
2022-09-09T02:21:20.391Z,7.90
2022-09-09T02:26:24.828Z,7.95
2022-09-09T02:31:39.403Z,7.95
2022-09-09T02:36:49.579Z,7.10
2022-09-09T02:41:53.953Z,7.00
2022-09-09T02:47:21.134Z,7.40
2022-09-09T02:52:31.831Z,7.10
2022-09-09T02:57:35.914Z,6.50
2022-09-09T03:02:44.367Z,8.93
2022-09-09T03:12:53.968Z,7.90
2022-09-09T03:17:59.377Z,7.95
2022-09-09T03:23:03.623Z,9.20
2022-09-09T03:28:07.562Z,8.20
2022-09-09T03:33:16.086Z,8.67
2022-09-09T03:38:21.256Z,8.07
2022-09-09T03:43:27.427Z,7.95
2022-09-09T03:48:32.787Z,8.57
2022-09-09T03:58:42.908Z,8.93
2022-09-09T04:03:50.273Z,8.73
2022-09-09T04:08:56.199Z,8.45
2022-09-09T04:19:08.802Z,7.70
2022-09-09T04:24:13.366Z,7.53
2022-09-09T04:29:17.285Z,7.00
2022-09-09T04:34:22.671Z,8.65
2022-09-09T04:39:27.262Z,8.48
2022-09-09T04:44:31.410Z,8.05
2022-09-09T04:49:38.395Z,8.17
2022-09-09T04:54:43.126Z,7.82
2022-09-09T04:59:47.267Z,7.28
2022-09-09T05:04:53.539Z,8.00
2022-09-09T05:09:57.467Z,7.63
2022-09-09T05:15:02.709Z,7.22
2022-09-09T05:20:15.558Z,6.93
2022-09-09T05:25:21.362Z,7.10
2022-09-09T05:30:27.411Z,6.47
2022-09-09T05:35:34.047Z,5.78
2022-09-09T05:40:38.300Z,6.25
2022-09-09T05:45:42.462Z,5.95
2022-09-09T05:50:55.448Z,4.32
2022-09-09T05:56:04.469Z,5.40
2022-09-09T06:01:12.475Z,5.80
2022-09-09T06:11:24.703Z,5.10
2022-09-09T06:16:30.175Z,5.70
2022-09-09T06:21:38.075Z,3.83
2022-09-09T06:26:44.505Z,4.70
2022-09-09T06:31:51.423Z,4.40
2022-09-09T06:37:01.345Z,3.72
2022-09-09T06:42:12.682Z,6.80
2022-09-09T06:47:44.031Z,3.90
2022-09-09T06:52:49.980Z,4.30
2022-09-09T06:57:53.903Z,4.30
2022-09-09T07:03:00.598Z,4.25
2022-09-09T07:08:06.918Z,4.03
2022-09-09T07:13:11.061Z,4.30
2022-09-09T07:18:16.514Z,4.20
2022-09-09T07:23:21.822Z,4.28
2022-09-09T07:28:25.995Z,3.97
2022-09-09T07:33:30.640Z,4.15
2022-09-09T07:38:40.693Z,5.50
2022-09-09T07:43:46.277Z,4.25
2022-09-09T07:48:53.040Z,4.57
2022-09-09T07:54:03.827Z,5.65
2022-09-09T07:59:10.737Z,4.25
2022-09-09T08:04:18.791Z,4.57
2022-09-09T08:09:28.208Z,4.15
2022-09-09T08:14:34.248Z,4.43
2022-09-09T08:19:39.198Z,4.53
2022-09-09T08:24:50.149Z,4.97
2022-09-09T08:29:56.853Z,5.15
2022-09-09T08:35:01.589Z,4.57
2022-09-09T08:40:11.864Z,4.40
2022-09-09T08:45:28.543Z,4.10
2022-09-09T08:50:36.990Z,3.83
2022-09-09T08:55:49.585Z,4.60
2022-09-09T09:01:08.892Z,5.15
2022-09-09T09:06:28.229Z,4.70
2022-09-09T09:11:38.991Z,6.72
2022-09-09T09:16:51.394Z,5.22
2022-09-09T09:21:59.874Z,4.30
2022-09-09T09:27:14.660Z,4.15
2022-09-09T09:32:23.858Z,5.00
2022-09-09T09:37:30.916Z,4.28
2022-09-09T09:42:38.105Z,4.68
2022-09-09T09:47:42.644Z,4.13
2022-09-09T09:52:58.108Z,4.88
2022-09-09T09:58:08.620Z,3.97
2022-09-09T10:03:24.051Z,3.55
2022-09-09T10:08:30.320Z,4.05
2022-09-09T10:13:42.233Z,3.97
2022-09-09T10:18:55.918Z,4.00
2022-09-09T10:24:13.557Z,4.90
2022-09-09T10:29:39.183Z,4.00
2022-09-09T10:34:57.627Z,4.50
2022-09-09T10:40:08.326Z,3.70
2022-09-09T10:45:20.931Z,4.10
2022-09-09T10:51:04.386Z,4.03
2022-09-09T10:56:11.919Z,3.70
2022-09-09T11:01:21.534Z,3.58
2022-09-09T11:06:31.319Z,3.95
2022-09-09T11:11:39.508Z,3.50
2022-09-09T11:16:50.726Z,5.07
2022-09-09T11:21:55.896Z,4.90
2022-09-09T11:27:04.019Z,3.92
2022-09-09T11:32:21.107Z,4.00
2022-09-09T11:37:57.236Z,4.22
2022-09-09T11:43:07.042Z,4.93
2022-09-09T11:48:26.880Z,3.90
2022-09-09T11:53:30.875Z,5.43
2022-09-09T11:58:40.072Z,4.82
2022-09-09T12:03:48.194Z,3.83
2022-09-09T12:08:58.052Z,4.38
2022-09-09T12:14:03.076Z,5.05
2022-09-09T12:19:17.735Z,4.68
2022-09-09T12:24:28.145Z,5.07
2022-09-09T12:29:39.655Z,4.75
2022-09-09T12:34:47.093Z,4.22
2022-09-09T12:39:54.661Z,4.93
2022-09-09T12:44:59.957Z,5.60
2022-09-09T12:50:05.479Z,4.03
2022-09-09T12:55:10.289Z,4.85
2022-09-09T13:00:18.112Z,4.63
2022-09-09T13:05:25.682Z,4.68
2022-09-09T13:10:36.725Z,4.82
2022-09-09T13:15:52.290Z,5.50
2022-09-09T13:20:58.813Z,6.13
2022-09-09T13:26:05.161Z,5.25
2022-09-09T13:31:23.743Z,12.93
2022-09-09T13:36:34.020Z,6.40
2022-09-09T13:41:40.127Z,5.30
2022-09-09T13:46:44.785Z,5.43
2022-09-09T13:51:51.756Z,5.90
2022-09-09T13:56:56.422Z,6.03
2022-09-09T14:02:00.526Z,6.15
2022-09-09T14:07:05.911Z,7.30
2022-09-09T14:12:11.679Z,5.63
2022-09-09T14:17:15.533Z,5.53
2022-09-09T14:22:20.838Z,6.53
2022-09-09T14:27:26.994Z,6.65
2022-09-09T14:32:31.000Z,5.63
2022-09-09T14:37:36.369Z,5.78
2022-09-09T14:42:40.195Z,5.45
2022-09-09T14:47:44.009Z,6.50
2022-09-09T14:52:49.499Z,6.13
2022-09-09T14:57:53.414Z,5.60
2022-09-09T15:02:57.891Z,5.60
2022-09-09T15:08:03.642Z,6.60
2022-09-09T15:13:07.483Z,5.88
2022-09-09T15:18:11.295Z,6.05
2022-09-09T15:23:18.099Z,5.97
2022-09-09T15:28:22.574Z,6.32
2022-09-09T15:33:26.756Z,6.20
2022-09-09T15:38:33.780Z,6.38
2022-09-09T15:43:37.909Z,5.93
2022-09-09T15:48:41.871Z,6.28
2022-09-09T15:53:47.286Z,6.30
2022-09-09T15:58:51.230Z,7.63
2022-09-09T16:03:55.536Z,6.53
2022-09-09T16:09:02.045Z,6.25
2022-09-09T16:14:07.608Z,6.82
2022-09-09T16:19:13.775Z,6.15
2022-09-09T16:24:20.572Z,6.65
2022-09-09T16:29:25.075Z,8.07
2022-09-09T16:34:29.283Z,8.50
2022-09-09T16:39:34.589Z,7.60
2022-09-09T16:49:41.997Z,7.45
2022-09-09T16:54:47.303Z,6.95
2022-09-09T16:59:51.503Z,7.38
2022-09-09T17:04:55.395Z,8.20
2022-09-09T17:10:00.616Z,7.57
2022-09-09T17:15:05.182Z,7.57
2022-09-09T17:20:10.539Z,8.53
2022-09-09T17:25:15.913Z,8.80
2022-09-09T17:30:20.087Z,8.13
2022-09-09T17:35:24.003Z,7.57
2022-09-09T17:40:29.699Z,7.03
2022-09-09T17:45:33.548Z,7.90
2022-09-09T17:50:37.710Z,8.23
2022-09-09T17:55:43.326Z,7.28
2022-09-09T18:00:47.816Z,8.52
2022-09-09T18:05:51.783Z,8.10
2022-09-09T18:10:57.172Z,8.50
2022-09-09T18:21:06.628Z,8.00
2022-09-09T18:26:13.835Z,7.63
2022-09-09T18:31:19.650Z,9.25
2022-09-09T18:36:32.352Z,7.68
2022-09-09T18:41:42.535Z,7.53
2022-09-09T18:46:46.796Z,11.27
2022-09-09T18:51:50.826Z,9.57
2022-09-09T18:56:56.261Z,7.05
2022-09-09T19:07:03.703Z,8.13
2022-09-09T19:12:09.344Z,7.40
2022-09-09T19:17:13.671Z,7.22
2022-09-09T19:22:17.811Z,10.00
2022-09-09T19:27:23.473Z,9.30
2022-09-09T19:32:52.137Z,8.93
2022-09-09T19:37:51.264Z,12.52
2022-09-09T19:42:56.414Z,8.10
2022-09-09T19:48:00.227Z,8.90
2022-09-09T19:53:04.159Z,8.88
2022-09-09T19:58:09.502Z,8.60
2022-09-09T20:03:19.033Z,9.23
2022-09-09T20:08:23.250Z,9.57
2022-09-09T20:13:28.579Z,9.80
2022-09-09T20:18:33.724Z,10.23
2022-09-09T20:23:38.527Z,9.73
2022-09-09T20:28:43.845Z,9.53
2022-09-09T20:33:48.116Z,8.82
2022-09-09T20:38:53.337Z,8.43
2022-09-09T20:44:01.608Z,9.18
2022-09-09T20:49:06.954Z,9.13
2022-09-09T20:54:13.959Z,9.88
2022-09-09T20:59:20.817Z,10.07
2022-09-09T21:04:25.174Z,9.52
2022-09-09T21:09:29.113Z,9.10
2022-09-09T21:14:34.372Z,9.63
2022-09-09T21:19:38.196Z,9.98
2022-09-09T21:24:42.162Z,10.20
2022-09-09T21:29:47.782Z,10.38
2022-09-09T21:34:51.633Z,10.65
2022-09-09T21:39:55.694Z,10.38
2022-09-09T21:45:00.938Z,10.20
2022-09-09T21:50:04.909Z,10.10
2022-09-09T21:55:10.007Z,8.77
2022-09-09T22:00:17.410Z,9.80
2022-09-09T22:05:21.306Z,9.15
2022-09-09T22:10:27.159Z,7.72
2022-09-09T22:20:41.947Z,7.90
2022-09-09T22:25:45.980Z,8.32
2022-09-09T22:30:51.290Z,7.20
2022-09-09T22:35:55.594Z,6.35
2022-09-09T22:40:59.784Z,5.18
2022-09-09T22:46:05.647Z,5.45
2022-09-09T22:51:12.282Z,5.70
2022-09-09T22:56:18.305Z,5.18
2022-09-09T23:01:24.797Z,4.78
2022-09-09T23:06:29.306Z,4.50
2022-09-09T23:11:34.365Z,3.85
2022-09-09T23:16:41.008Z,3.63
2022-09-09T23:21:47.201Z,3.60
2022-09-09T23:26:51.039Z,3.70
2022-09-09T23:31:56.370Z,3.17
2022-09-09T23:37:00.206Z,3.22
2022-09-09T23:42:06.319Z,3.10
2022-09-09T23:47:11.665Z,3.65
2022-09-09T23:52:15.491Z,3.17
2022-09-09T23:57:19.302Z,3.17
